sensor_id;sensor_type;location;lat;lon;timestamp;pressure;altitude;pressure_sealevel;temperature;humidity
79366;BME280;68833;53.160;17.920;2023-05-09T00:02:00;102038.73;;;7.16;62.20
79366;BME280;68833;53.160;17.920;2023-05-09T00:04:27;102037.05;;;7.12;61.86
79366;BME280;68833;53.160;17.920;2023-05-09T00:06:54;102043.34;;;7.05;62.02
79366;BME280;68833;53.160;17.920;2023-05-09T00:09:21;102039.02;;;7.01;62.47
79366;BME280;68833;53.160;17.920;2023-05-09T00:11:47;102040.83;;;6.96;62.21
79366;BME280;68833;53.160;17.920;2023-05-09T00:14:14;102035.27;;;6.91;62.45
79366;BME280;68833;53.160;17.920;2023-05-09T00:16:40;102033.34;;;6.90;62.75
79366;BME280;68833;53.160;17.920;2023-05-09T00:19:07;102029.69;;;6.91;62.55
79366;BME280;68833;53.160;17.920;2023-05-09T00:21:35;102030.58;;;6.91;63.00
79366;BME280;68833;53.160;17.920;2023-05-09T00:24:01;102027.58;;;6.91;63.18
79366;BME280;68833;53.160;17.920;2023-05-09T00:26:28;102029.04;;;6.93;63.22
79366;BME280;68833;53.160;17.920;2023-05-09T00:28:55;102029.59;;;6.94;63.70
79366;BME280;68833;53.160;17.920;2023-05-09T00:31:23;102030.33;;;6.96;63.29
79366;BME280;68833;53.160;17.920;2023-05-09T00:33:52;102029.59;;;6.94;63.19
79366;BME280;68833;53.160;17.920;2023-05-09T00:36:20;102029.11;;;6.89;63.20
79366;BME280;68833;53.160;17.920;2023-05-09T00:38:49;102027.33;;;6.88;63.45
79366;BME280;68833;53.160;17.920;2023-05-09T00:41:16;102022.75;;;6.86;63.45
79366;BME280;68833;53.160;17.920;2023-05-09T00:43:42;102026.34;;;6.84;63.32
79366;BME280;68833;53.160;17.920;2023-05-09T00:46:08;102026.98;;;6.82;63.67
79366;BME280;68833;53.160;17.920;2023-05-09T00:48:36;102025.39;;;6.81;63.40
79366;BME280;68833;53.160;17.920;2023-05-09T00:51:02;102026.17;;;6.78;63.35
79366;BME280;68833;53.160;17.920;2023-05-09T00:53:30;102026.70;;;6.78;63.66
79366;BME280;68833;53.160;17.920;2023-05-09T00:55:56;102022.45;;;6.76;64.09
79366;BME280;68833;53.160;17.920;2023-05-09T00:58:25;102022.95;;;6.75;64.12
79366;BME280;68833;53.160;17.920;2023-05-09T01:00:52;102020.69;;;6.75;64.74
79366;BME280;68833;53.160;17.920;2023-05-09T01:03:18;102020.00;;;6.76;64.47
79366;BME280;68833;53.160;17.920;2023-05-09T01:05:54;102021.00;;;6.74;64.61
79366;BME280;68833;53.160;17.920;2023-05-09T01:13:23;102018.42;;;6.69;64.71
79366;BME280;68833;53.160;17.920;2023-05-09T01:16:00;102016.17;;;6.70;64.98
79366;BME280;68833;53.160;17.920;2023-05-09T01:18:54;102013.25;;;6.71;65.60
79366;BME280;68833;53.160;17.920;2023-05-09T01:21:29;102013.08;;;6.72;65.50
79366;BME280;68833;53.160;17.920;2023-05-09T01:24:21;102014.45;;;6.71;65.42
79366;BME280;68833;53.160;17.920;2023-05-09T01:27:11;102017.16;;;6.68;65.70
79366;BME280;68833;53.160;17.920;2023-05-09T01:29:44;102019.05;;;6.67;65.84
79366;BME280;68833;53.160;17.920;2023-05-09T01:32:17;102016.17;;;6.64;66.02
79366;BME280;68833;53.160;17.920;2023-05-09T01:34:46;102014.84;;;6.60;66.09
79366;BME280;68833;53.160;17.920;2023-05-09T01:37:17;102017.29;;;6.54;66.10
79366;BME280;68833;53.160;17.920;2023-05-09T01:39:47;102013.61;;;6.53;66.23
79366;BME280;68833;53.160;17.920;2023-05-09T01:42:19;102010.98;;;6.53;66.01
79366;BME280;68833;53.160;17.920;2023-05-09T01:44:47;102011.84;;;6.52;66.03
79366;BME280;68833;53.160;17.920;2023-05-09T01:47:14;102011.63;;;6.51;66.65
79366;BME280;68833;53.160;17.920;2023-05-09T01:49:43;102008.44;;;6.50;66.56
79366;BME280;68833;53.160;17.920;2023-05-09T01:52:12;102012.58;;;6.48;66.67
79366;BME280;68833;53.160;17.920;2023-05-09T01:54:40;102007.95;;;6.44;67.04
79366;BME280;68833;53.160;17.920;2023-05-09T01:57:08;102011.02;;;6.43;67.03
79366;BME280;68833;53.160;17.920;2023-05-09T01:59:39;102003.77;;;6.39;67.11
79366;BME280;68833;53.160;17.920;2023-05-09T02:02:07;102005.20;;;6.40;67.15
79366;BME280;68833;53.160;17.920;2023-05-09T02:04:34;102004.91;;;6.43;67.24
79366;BME280;68833;53.160;17.920;2023-05-09T02:07:03;102000.75;;;6.43;67.34
79366;BME280;68833;53.160;17.920;2023-05-09T02:09:32;101998.83;;;6.43;67.85
79366;BME280;68833;53.160;17.920;2023-05-09T02:11:58;101997.60;;;6.43;67.72
79366;BME280;68833;53.160;17.920;2023-05-09T02:14:25;101993.91;;;6.42;67.51
79366;BME280;68833;53.160;17.920;2023-05-09T02:16:52;101993.34;;;6.41;67.28
79366;BME280;68833;53.160;17.920;2023-05-09T02:19:19;101993.34;;;6.35;67.53
79366;BME280;68833;53.160;17.920;2023-05-09T02:21:47;101993.43;;;6.32;67.74
79366;BME280;68833;53.160;17.920;2023-05-09T02:24:14;101995.10;;;6.29;67.64
79366;BME280;68833;53.160;17.920;2023-05-09T02:26:41;101993.24;;;6.26;68.07
79366;BME280;68833;53.160;17.920;2023-05-09T02:29:09;101989.52;;;6.23;67.52
79366;BME280;68833;53.160;17.920;2023-05-09T02:31:39;101990.55;;;6.23;67.80
79366;BME280;68833;53.160;17.920;2023-05-09T02:34:07;101990.69;;;6.21;67.90
79366;BME280;68833;53.160;17.920;2023-05-09T02:36:35;101989.73;;;6.19;67.88
79366;BME280;68833;53.160;17.920;2023-05-09T02:39:01;101993.88;;;6.17;67.94
79366;BME280;68833;53.160;17.920;2023-05-09T02:41:29;101991.92;;;6.16;68.32
79366;BME280;68833;53.160;17.920;2023-05-09T02:43:55;101991.52;;;6.15;68.33
79366;BME280;68833;53.160;17.920;2023-05-09T02:46:22;101991.14;;;6.13;68.19
79366;BME280;68833;53.160;17.920;2023-05-09T02:48:48;101989.75;;;6.14;68.79
79366;BME280;68833;53.160;17.920;2023-05-09T02:51:17;101991.06;;;6.17;68.19
79366;BME280;68833;53.160;17.920;2023-05-09T02:53:44;101989.33;;;6.17;68.26
79366;BME280;68833;53.160;17.920;2023-05-09T02:56:10;101992.65;;;6.17;67.83
79366;BME280;68833;53.160;17.920;2023-05-09T02:58:38;101985.31;;;6.16;68.24
79366;BME280;68833;53.160;17.920;2023-05-09T03:01:04;101985.98;;;6.15;68.58
79366;BME280;68833;53.160;17.920;2023-05-09T03:03:31;101985.23;;;6.14;68.30
79366;BME280;68833;53.160;17.920;2023-05-09T03:06:00;101988.13;;;6.12;68.60
79366;BME280;68833;53.160;17.920;2023-05-09T03:08:26;101990.98;;;6.14;68.66
79366;BME280;68833;53.160;17.920;2023-05-09T03:10:54;101987.15;;;6.14;68.37
79366;BME280;68833;53.160;17.920;2023-05-09T03:13:20;101991.61;;;6.11;68.64
79366;BME280;68833;53.160;17.920;2023-05-09T03:15:46;101991.33;;;6.08;68.80
79366;BME280;68833;53.160;17.920;2023-05-09T03:18:13;101991.41;;;6.05;69.04
79366;BME280;68833;53.160;17.920;2023-05-09T03:20:40;101990.94;;;6.01;69.07
79366;BME280;68833;53.160;17.920;2023-05-09T03:23:07;101986.65;;;5.98;69.28
79366;BME280;68833;53.160;17.920;2023-05-09T03:25:33;101990.80;;;5.97;69.40
79366;BME280;68833;53.160;17.920;2023-05-09T03:28:01;101988.50;;;5.97;69.73
79366;BME280;68833;53.160;17.920;2023-05-09T03:30:28;101990.29;;;5.98;69.56
79366;BME280;68833;53.160;17.920;2023-05-09T03:32:54;101989.40;;;5.97;69.38
79366;BME280;68833;53.160;17.920;2023-05-09T03:35:25;101994.27;;;5.97;69.70
79366;BME280;68833;53.160;17.920;2023-05-09T03:37:53;101991.23;;;5.95;69.60
79366;BME280;68833;53.160;17.920;2023-05-09T03:40:20;101997.27;;;5.92;69.54
79366;BME280;68833;53.160;17.920;2023-05-09T03:43:13;101999.10;;;5.90;69.96
79366;BME280;68833;53.160;17.920;2023-05-09T03:45:42;102000.79;;;5.88;69.91
79366;BME280;68833;53.160;17.920;2023-05-09T03:48:11;102001.48;;;5.87;69.52
79366;BME280;68833;53.160;17.920;2023-05-09T03:50:43;102000.11;;;5.89;69.72
79366;BME280;68833;53.160;17.920;2023-05-09T03:53:11;101996.15;;;5.90;69.59
79366;BME280;68833;53.160;17.920;2023-05-09T03:55:38;102003.66;;;5.90;69.35
79366;BME280;68833;53.160;17.920;2023-05-09T03:58:05;101999.83;;;5.91;69.74
79366;BME280;68833;53.160;17.920;2023-05-09T04:00:32;102002.56;;;5.89;70.03
79366;BME280;68833;53.160;17.920;2023-05-09T04:03:03;102000.77;;;5.87;69.84
79366;BME280;68833;53.160;17.920;2023-05-09T04:05:36;102003.73;;;5.87;70.42
79366;BME280;68833;53.160;17.920;2023-05-09T04:08:03;102003.58;;;5.88;70.64
79366;BME280;68833;53.160;17.920;2023-05-09T04:10:30;102006.85;;;5.92;70.64
79366;BME280;68833;53.160;17.920;2023-05-09T04:12:57;102005.59;;;5.97;70.20
79366;BME280;68833;53.160;17.920;2023-05-09T04:15:24;102007.63;;;5.99;70.18
79366;BME280;68833;53.160;17.920;2023-05-09T04:17:50;102006.08;;;6.00;69.91
79366;BME280;68833;53.160;17.920;2023-05-09T04:20:17;102005.20;;;6.00;69.96
79366;BME280;68833;53.160;17.920;2023-05-09T04:22:43;102005.21;;;6.00;70.39
79366;BME280;68833;53.160;17.920;2023-05-09T04:25:10;102005.70;;;5.99;69.89
79366;BME280;68833;53.160;17.920;2023-05-09T04:27:38;102004.45;;;5.98;70.30
79366;BME280;68833;53.160;17.920;2023-05-09T04:30:07;102008.49;;;5.99;70.40
79366;BME280;68833;53.160;17.920;2023-05-09T04:32:34;102010.50;;;6.02;70.39
79366;BME280;68833;53.160;17.920;2023-05-09T04:35:01;102009.89;;;6.05;70.29
79366;BME280;68833;53.160;17.920;2023-05-09T04:37:31;102013.65;;;6.08;70.15
79366;BME280;68833;53.160;17.920;2023-05-09T04:39:57;102014.61;;;6.11;70.19
79366;BME280;68833;53.160;17.920;2023-05-09T04:42:29;102016.27;;;6.13;70.48
79366;BME280;68833;53.160;17.920;2023-05-09T04:44:58;102014.26;;;6.16;70.35
79366;BME280;68833;53.160;17.920;2023-05-09T04:47:26;102011.36;;;6.18;70.30
79366;BME280;68833;53.160;17.920;2023-05-09T04:49:52;102010.65;;;6.24;70.26
79366;BME280;68833;53.160;17.920;2023-05-09T04:52:19;102009.45;;;6.31;70.21
79366;BME280;68833;53.160;17.920;2023-05-09T04:54:45;102010.98;;;6.35;70.18
79366;BME280;68833;53.160;17.920;2023-05-09T04:57:12;102010.45;;;6.41;70.34
79366;BME280;68833;53.160;17.920;2023-05-09T04:59:38;102010.93;;;6.46;70.52
79366;BME280;68833;53.160;17.920;2023-05-09T05:02:05;102010.36;;;6.49;70.34
79366;BME280;68833;53.160;17.920;2023-05-09T05:04:31;102011.52;;;6.53;70.39
79366;BME280;68833;53.160;17.920;2023-05-09T05:06:59;102014.58;;;6.57;70.12
79366;BME280;68833;53.160;17.920;2023-05-09T05:09:25;102014.34;;;6.61;69.87
79366;BME280;68833;53.160;17.920;2023-05-09T05:11:52;102018.14;;;6.66;70.10
79366;BME280;68833;53.160;17.920;2023-05-09T05:14:18;102017.83;;;6.73;69.58
79366;BME280;68833;53.160;17.920;2023-05-09T05:16:45;102017.33;;;6.80;69.49
79366;BME280;68833;53.160;17.920;2023-05-09T05:19:11;102017.70;;;6.88;69.20
79366;BME280;68833;53.160;17.920;2023-05-09T05:21:38;102017.77;;;6.97;69.12
79366;BME280;68833;53.160;17.920;2023-05-09T05:24:05;102014.64;;;7.04;69.11
79366;BME280;68833;53.160;17.920;2023-05-09T05:26:31;102012.89;;;7.10;69.03
79366;BME280;68833;53.160;17.920;2023-05-09T05:28:58;102013.95;;;7.17;68.99
79366;BME280;68833;53.160;17.920;2023-05-09T05:31:24;102014.66;;;7.24;69.07
79366;BME280;68833;53.160;17.920;2023-05-09T05:33:50;102015.05;;;7.32;69.05
79366;BME280;68833;53.160;17.920;2023-05-09T05:36:17;102017.52;;;7.40;69.21
79366;BME280;68833;53.160;17.920;2023-05-09T05:38:43;102013.41;;;7.51;68.81
79366;BME280;68833;53.160;17.920;2023-05-09T05:41:10;102010.75;;;7.63;68.46
79366;BME280;68833;53.160;17.920;2023-05-09T05:43:37;102009.10;;;7.75;68.31
79366;BME280;68833;53.160;17.920;2023-05-09T05:46:03;102004.86;;;7.88;68.20
79366;BME280;68833;53.160;17.920;2023-05-09T05:48:30;102010.64;;;8.03;67.86
79366;BME280;68833;53.160;17.920;2023-05-09T05:50:57;102002.05;;;8.18;67.55
79366;BME280;68833;53.160;17.920;2023-05-09T05:53:26;102001.20;;;8.36;67.40
79366;BME280;68833;53.160;17.920;2023-05-09T05:55:52;102001.75;;;8.52;67.32
79366;BME280;68833;53.160;17.920;2023-05-09T05:58:18;102007.02;;;8.70;67.02
79366;BME280;68833;53.160;17.920;2023-05-09T06:00:45;102007.32;;;8.85;66.09
79366;BME280;68833;53.160;17.920;2023-05-09T06:03:11;102004.98;;;9.01;65.47
79366;BME280;68833;53.160;17.920;2023-05-09T06:05:53;102007.72;;;9.17;64.20
79366;BME280;68833;53.160;17.920;2023-05-09T06:08:20;102000.63;;;9.32;63.92
79366;BME280;68833;53.160;17.920;2023-05-09T06:10:47;101998.96;;;9.48;63.72
79366;BME280;68833;53.160;17.920;2023-05-09T06:13:13;101999.88;;;9.61;63.10
79366;BME280;68833;53.160;17.920;2023-05-09T06:15:43;101996.23;;;9.74;63.22
79366;BME280;68833;53.160;17.920;2023-05-09T06:18:09;101994.50;;;9.88;62.87
79366;BME280;68833;53.160;17.920;2023-05-09T06:20:35;101995.58;;;10.01;62.51
79366;BME280;68833;53.160;17.920;2023-05-09T06:23:02;101997.67;;;10.14;61.80
79366;BME280;68833;53.160;17.920;2023-05-09T06:25:29;101998.58;;;10.28;60.73
79366;BME280;68833;53.160;17.920;2023-05-09T06:27:55;101998.27;;;10.42;60.29
79366;BME280;68833;53.160;17.920;2023-05-09T06:30:21;101998.08;;;10.55;59.11
79366;BME280;68833;53.160;17.920;2023-05-09T06:32:47;101996.61;;;10.66;58.64
79366;BME280;68833;53.160;17.920;2023-05-09T06:35:13;101991.98;;;10.76;57.33
79366;BME280;68833;53.160;17.920;2023-05-09T06:37:40;101991.59;;;10.87;57.71
79366;BME280;68833;53.160;17.920;2023-05-09T06:40:07;101991.18;;;10.99;56.64
79366;BME280;68833;53.160;17.920;2023-05-09T06:42:33;101989.00;;;11.10;56.43
79366;BME280;68833;53.160;17.920;2023-05-09T06:45:00;101981.38;;;11.23;56.68
79366;BME280;68833;53.160;17.920;2023-05-09T06:47:26;101983.08;;;11.37;56.25
79366;BME280;68833;53.160;17.920;2023-05-09T06:49:52;101983.73;;;11.50;55.40
79366;BME280;68833;53.160;17.920;2023-05-09T06:52:18;101980.67;;;11.64;54.20
79366;BME280;68833;53.160;17.920;2023-05-09T06:54:46;101982.15;;;11.76;53.37
79366;BME280;68833;53.160;17.920;2023-05-09T06:57:12;101983.48;;;11.89;53.68
79366;BME280;68833;53.160;17.920;2023-05-09T06:59:38;101978.30;;;12.00;52.78
79366;BME280;68833;53.160;17.920;2023-05-09T07:02:05;101973.23;;;12.08;51.59
79366;BME280;68833;53.160;17.920;2023-05-09T07:04:31;101973.10;;;12.18;51.92
79366;BME280;68833;53.160;17.920;2023-05-09T07:06:58;101972.10;;;12.29;51.00
79366;BME280;68833;53.160;17.920;2023-05-09T07:09:25;101964.75;;;12.41;51.17
79366;BME280;68833;53.160;17.920;2023-05-09T07:11:54;101967.64;;;12.56;50.20
79366;BME280;68833;53.160;17.920;2023-05-09T07:14:20;101966.08;;;12.70;48.22
79366;BME280;68833;53.160;17.920;2023-05-09T07:16:46;101961.52;;;12.78;47.96
79366;BME280;68833;53.160;17.920;2023-05-09T07:19:13;101956.60;;;12.89;48.84
79366;BME280;68833;53.160;17.920;2023-05-09T07:21:39;101953.61;;;13.01;48.52
79366;BME280;68833;53.160;17.920;2023-05-09T07:24:05;101947.29;;;13.12;47.79
79366;BME280;68833;53.160;17.920;2023-05-09T07:26:34;101942.71;;;13.21;47.50
79366;BME280;68833;53.160;17.920;2023-05-09T07:29:00;101942.34;;;13.32;47.36
79366;BME280;68833;53.160;17.920;2023-05-09T07:31:26;101943.61;;;13.42;47.05
79366;BME280;68833;53.160;17.920;2023-05-09T07:33:53;101938.13;;;13.53;45.53
79366;BME280;68833;53.160;17.920;2023-05-09T07:36:19;101936.52;;;13.58;45.31
79366;BME280;68833;53.160;17.920;2023-05-09T07:38:45;101930.52;;;13.63;44.38
79366;BME280;68833;53.160;17.920;2023-05-09T07:41:17;101935.10;;;13.70;44.46
79366;BME280;68833;53.160;17.920;2023-05-09T07:43:44;101928.56;;;13.77;44.58
79366;BME280;68833;53.160;17.920;2023-05-09T07:46:10;101922.89;;;13.85;43.35
79366;BME280;68833;53.160;17.920;2023-05-09T07:48:36;101919.85;;;13.93;44.11
79366;BME280;68833;53.160;17.920;2023-05-09T07:51:03;101916.98;;;14.06;41.92
79366;BME280;68833;53.160;17.920;2023-05-09T07:53:29;101920.14;;;14.14;40.79
79366;BME280;68833;53.160;17.920;2023-05-09T07:55:55;101919.04;;;14.22;41.52
79366;BME280;68833;53.160;17.920;2023-05-09T07:58:23;101912.64;;;14.30;38.73
79366;BME280;68833;53.160;17.920;2023-05-09T08:00:49;101915.46;;;14.32;35.59
79366;BME280;68833;53.160;17.920;2023-05-09T08:03:15;101912.44;;;14.34;36.87
79366;BME280;68833;53.160;17.920;2023-05-09T08:05:42;101909.42;;;14.38;36.71
79366;BME280;68833;53.160;17.920;2023-05-09T08:08:08;101906.39;;;14.43;36.26
79366;BME280;68833;53.160;17.920;2023-05-09T08:10:34;101910.09;;;14.45;36.25
79366;BME280;68833;53.160;17.920;2023-05-09T08:13:00;101910.27;;;14.49;34.90
79366;BME280;68833;53.160;17.920;2023-05-09T08:15:26;101899.44;;;14.52;35.39
79366;BME280;68833;53.160;17.920;2023-05-09T08:17:53;101895.52;;;14.58;35.09
79366;BME280;68833;53.160;17.920;2023-05-09T08:20:19;101895.67;;;14.66;35.42
79366;BME280;68833;53.160;17.920;2023-05-09T08:22:45;101891.38;;;14.72;34.43
79366;BME280;68833;53.160;17.920;2023-05-09T08:25:11;101885.69;;;14.78;34.88
79366;BME280;68833;53.160;17.920;2023-05-09T08:27:40;101888.63;;;14.88;34.83
79366;BME280;68833;53.160;17.920;2023-05-09T08:30:07;101886.08;;;14.96;33.75
79366;BME280;68833;53.160;17.920;2023-05-09T08:32:33;101875.08;;;15.01;34.79
79366;BME280;68833;53.160;17.920;2023-05-09T08:34:59;101876.77;;;15.10;35.48
79366;BME280;68833;53.160;17.920;2023-05-09T08:37:26;101877.02;;;15.19;34.54
79366;BME280;68833;53.160;17.920;2023-05-09T08:39:53;101876.65;;;15.23;34.84
79366;BME280;68833;53.160;17.920;2023-05-09T08:42:21;101871.11;;;15.27;34.68
79366;BME280;68833;53.160;17.920;2023-05-09T08:44:47;101870.04;;;15.30;34.49
79366;BME280;68833;53.160;17.920;2023-05-09T08:47:14;101863.98;;;15.34;33.80
79366;BME280;68833;53.160;17.920;2023-05-09T08:49:41;101858.06;;;15.41;33.80
79366;BME280;68833;53.160;17.920;2023-05-09T08:52:08;101856.73;;;15.49;32.94
79366;BME280;68833;53.160;17.920;2023-05-09T08:54:36;101852.27;;;15.52;32.34
79366;BME280;68833;53.160;17.920;2023-05-09T08:57:03;101855.23;;;15.57;32.91
79366;BME280;68833;53.160;17.920;2023-05-09T08:59:30;101860.50;;;15.62;32.82
79366;BME280;68833;53.160;17.920;2023-05-09T09:01:58;101852.15;;;15.64;32.69
79366;BME280;68833;53.160;17.920;2023-05-09T09:04:24;101852.30;;;15.66;32.38
79366;BME280;68833;53.160;17.920;2023-05-09T09:06:51;101851.52;;;15.72;32.60
79366;BME280;68833;53.160;17.920;2023-05-09T09:09:19;101850.03;;;15.79;31.83
79366;BME280;68833;53.160;17.920;2023-05-09T09:11:46;101851.04;;;15.86;32.65
79366;BME280;68833;53.160;17.920;2023-05-09T09:14:21;101852.34;;;15.96;32.60
79366;BME280;68833;53.160;17.920;2023-05-09T09:16:50;101856.11;;;16.05;31.06
79366;BME280;68833;53.160;17.920;2023-05-09T09:19:17;101851.83;;;16.07;31.65
79366;BME280;68833;53.160;17.920;2023-05-09T09:21:45;101852.50;;;16.11;30.33
79366;BME280;68833;53.160;17.920;2023-05-09T09:24:20;101858.99;;;16.15;31.31
79366;BME280;68833;53.160;17.920;2023-05-09T09:26:48;101846.16;;;16.21;31.13
79366;BME280;68833;53.160;17.920;2023-05-09T09:29:16;101841.83;;;16.25;31.69
79366;BME280;68833;53.160;17.920;2023-05-09T09:31:44;101839.98;;;16.30;30.60
79366;BME280;68833;53.160;17.920;2023-05-09T09:34:12;101842.27;;;16.31;31.01
79366;BME280;68833;53.160;17.920;2023-05-09T09:36:39;101840.40;;;16.38;30.58
79366;BME280;68833;53.160;17.920;2023-05-09T09:39:05;101840.02;;;16.40;30.02
79366;BME280;68833;53.160;17.920;2023-05-09T09:41:37;101832.09;;;16.38;30.05
79366;BME280;68833;53.160;17.920;2023-05-09T09:46:49;101826.73;;;16.40;30.13
79366;BME280;68833;53.160;17.920;2023-05-09T09:49:21;101821.34;;;16.44;30.07
79366;BME280;68833;53.160;17.920;2023-05-09T09:52:05;101820.79;;;16.45;29.42
79366;BME280;68833;53.160;17.920;2023-05-09T09:54:31;101815.14;;;16.44;29.83
79366;BME280;68833;53.160;17.920;2023-05-09T09:56:58;101816.69;;;16.47;29.04
79366;BME280;68833;53.160;17.920;2023-05-09T09:59:25;101816.66;;;16.49;29.65
79366;BME280;68833;53.160;17.920;2023-05-09T10:03:54;101806.03;;;16.59;29.71
79366;BME280;68833;53.160;17.920;2023-05-09T10:06:20;101803.11;;;16.64;29.50
79366;BME280;68833;53.160;17.920;2023-05-09T10:08:47;101796.82;;;16.70;29.50
79366;BME280;68833;53.160;17.920;2023-05-09T10:11:14;101789.84;;;16.73;29.56
79366;BME280;68833;53.160;17.920;2023-05-09T10:13:40;101790.05;;;16.81;29.75
79366;BME280;68833;53.160;17.920;2023-05-09T10:16:07;101795.63;;;16.88;29.15
79366;BME280;68833;53.160;17.920;2023-05-09T10:18:35;101780.01;;;16.88;29.21
79366;BME280;68833;53.160;17.920;2023-05-09T10:21:01;101786.34;;;16.93;29.54
79366;BME280;68833;53.160;17.920;2023-05-09T10:23:31;101781.48;;;16.96;29.06
79366;BME280;68833;53.160;17.920;2023-05-09T10:28:38;101775.64;;;16.96;29.13
79366;BME280;68833;53.160;17.920;2023-05-09T10:31:13;101765.92;;;17.03;29.72
79366;BME280;68833;53.160;17.920;2023-05-09T10:33:45;101763.50;;;17.09;29.04
79366;BME280;68833;53.160;17.920;2023-05-09T10:36:14;101759.19;;;17.12;28.88
79366;BME280;68833;53.160;17.920;2023-05-09T10:38:42;101758.77;;;17.15;29.34
79366;BME280;68833;53.160;17.920;2023-05-09T10:41:09;101759.30;;;17.25;29.33
79366;BME280;68833;53.160;17.920;2023-05-09T10:43:36;101759.61;;;17.36;29.09
79366;BME280;68833;53.160;17.920;2023-05-09T10:46:03;101754.48;;;17.43;29.29
79366;BME280;68833;53.160;17.920;2023-05-09T10:48:33;101752.90;;;17.43;28.34
79366;BME280;68833;53.160;17.920;2023-05-09T10:51:01;101745.22;;;17.45;27.95
79366;BME280;68833;53.160;17.920;2023-05-09T10:53:42;101740.78;;;17.44;28.26
79366;BME280;68833;53.160;17.920;2023-05-09T10:56:21;101743.73;;;17.48;27.94
79366;BME280;68833;53.160;17.920;2023-05-09T10:58:47;101744.17;;;17.52;27.92
79366;BME280;68833;53.160;17.920;2023-05-09T11:01:36;101738.42;;;17.63;27.76
79366;BME280;68833;53.160;17.920;2023-05-09T11:04:12;101729.34;;;17.73;28.07
79366;BME280;68833;53.160;17.920;2023-05-09T11:06:44;101721.63;;;17.76;27.04
79366;BME280;68833;53.160;17.920;2023-05-09T11:12:14;101718.86;;;17.64;27.32
79366;BME280;68833;53.160;17.920;2023-05-09T11:14:46;101716.14;;;17.59;27.19
79366;BME280;68833;53.160;17.920;2023-05-09T11:17:26;101719.41;;;17.55;27.43
79366;BME280;68833;53.160;17.920;2023-05-09T11:20:05;101708.52;;;17.59;27.61
79366;BME280;68833;53.160;17.920;2023-05-09T11:22:39;101699.52;;;17.63;26.82
79366;BME280;68833;53.160;17.920;2023-05-09T11:25:13;101695.28;;;17.62;27.45
79366;BME280;68833;53.160;17.920;2023-05-09T11:27:45;101698.77;;;17.65;27.29
79366;BME280;68833;53.160;17.920;2023-05-09T11:30:16;101693.83;;;17.63;26.79
79366;BME280;68833;53.160;17.920;2023-05-09T11:32:53;101699.53;;;17.62;27.34
79366;BME280;68833;53.160;17.920;2023-05-09T11:35:24;101697.15;;;17.58;26.95
79366;BME280;68833;53.160;17.920;2023-05-09T11:38:01;101693.08;;;17.58;26.88
79366;BME280;68833;53.160;17.920;2023-05-09T11:40:29;101687.65;;;17.62;26.84
79366;BME280;68833;53.160;17.920;2023-05-09T11:42:58;101685.55;;;17.68;26.62
79366;BME280;68833;53.160;17.920;2023-05-09T11:45:27;101678.48;;;17.66;26.16
79366;BME280;68833;53.160;17.920;2023-05-09T11:47:53;101673.00;;;17.65;26.61
79366;BME280;68833;53.160;17.920;2023-05-09T11:50:20;101677.66;;;17.72;26.15
79366;BME280;68833;53.160;17.920;2023-05-09T11:52:47;101673.08;;;17.69;25.75
79366;BME280;68833;53.160;17.920;2023-05-09T11:55:20;101666.02;;;17.67;26.43
79366;BME280;68833;53.160;17.920;2023-05-09T11:57:52;101667.45;;;17.67;26.23
79366;BME280;68833;53.160;17.920;2023-05-09T12:00:21;101657.20;;;17.65;26.00
79366;BME280;68833;53.160;17.920;2023-05-09T12:02:48;101646.47;;;17.60;26.26
79366;BME280;68833;53.160;17.920;2023-05-09T12:05:17;101648.58;;;17.61;26.74
79366;BME280;68833;53.160;17.920;2023-05-09T12:07:44;101651.05;;;17.62;26.42
79366;BME280;68833;53.160;17.920;2023-05-09T12:10:12;101650.52;;;17.62;26.52
79366;BME280;68833;53.160;17.920;2023-05-09T12:12:44;101647.67;;;17.62;26.89
79366;BME280;68833;53.160;17.920;2023-05-09T12:15:11;101632.90;;;17.63;26.64
79366;BME280;68833;53.160;17.920;2023-05-09T12:17:39;101632.08;;;17.68;26.06
79366;BME280;68833;53.160;17.920;2023-05-09T12:20:07;101631.27;;;17.72;26.16
79366;BME280;68833;53.160;17.920;2023-05-09T12:22:34;101632.09;;;17.75;26.44
79366;BME280;68833;53.160;17.920;2023-05-09T12:25:03;101629.95;;;17.75;26.44
79366;BME280;68833;53.160;17.920;2023-05-09T12:27:30;101631.30;;;17.78;26.43
79366;BME280;68833;53.160;17.920;2023-05-09T12:29:59;101626.00;;;17.77;26.75
79366;BME280;68833;53.160;17.920;2023-05-09T12:32:27;101626.79;;;17.81;26.82
79366;BME280;68833;53.160;17.920;2023-05-09T12:34:59;101618.88;;;17.78;25.70
79366;BME280;68833;53.160;17.920;2023-05-09T12:37:25;101615.13;;;17.71;25.98
79366;BME280;68833;53.160;17.920;2023-05-09T12:40:10;101615.48;;;17.63;25.48
79366;BME280;68833;53.160;17.920;2023-05-09T12:42:44;101607.47;;;17.57;25.15
79366;BME280;68833;53.160;17.920;2023-05-09T12:45:11;101605.77;;;17.54;26.17
79366;BME280;68833;53.160;17.920;2023-05-09T12:47:38;101599.61;;;17.51;25.91
79366;BME280;68833;53.160;17.920;2023-05-09T12:50:05;101593.48;;;17.47;26.04
79366;BME280;68833;53.160;17.920;2023-05-09T12:52:41;101585.19;;;17.45;26.21
79366;BME280;68833;53.160;17.920;2023-05-09T12:55:09;101585.10;;;17.48;25.44
79366;BME280;68833;53.160;17.920;2023-05-09T12:57:37;101589.06;;;17.46;25.53
79366;BME280;68833;53.160;17.920;2023-05-09T13:00:05;101577.59;;;17.43;26.12
79366;BME280;68833;53.160;17.920;2023-05-09T13:02:41;101571.84;;;17.46;26.66
79366;BME280;68833;53.160;17.920;2023-05-09T13:05:12;101572.23;;;17.51;26.63
79366;BME280;68833;53.160;17.920;2023-05-09T13:07:41;101567.70;;;17.56;26.48